Tonopah, Nevada Weather observations

Data are for observation ending at time listed.
 Day   Time    Ave.   Ave.  Ave.  Vector   Max.   Stn.    Total    Solar   Ave.  
  of    of     Air    Rel.  Wind   Wind    Wind   Baro.  Precip.   Rad.    Soil  
Year   Day     Temp.  Hum.  Speed  Dir.    Gust   Pres.                    Temp. 
2015   (PST)    F      %     mph   deg.    mph     mb.     in.     W/m2     F   
------------------------------------------------------------------------------
 141    2:00   44.3    67    2.9   124      3.7   808.4    0.00       0    51.4
 141    2:10   44.5    64    3.0   169      4.1   808.4    0.00       0    51.3
 141    2:20   44.3    65    3.1   158      3.9   808.3    0.00       0    51.2
 141    2:30   44.6    63    3.1   160      3.5   808.3    0.00       0    51.1
 141    2:40   44.2    65    2.2   155      3.4   808.3    0.00       0    51.0
 141    2:50   43.9    64    2.4   137      3.7   808.3    0.00       0    50.9
 141    3:00   45.0    60    2.7   144      3.7   808.3    0.00       0    50.8
 141    3:10   44.5    62    2.0   132      2.6   808.3    0.00       0    50.6
 141    3:20   44.3    62    1.8   137      3.0   808.2    0.00       0    50.5
 141    3:30   43.5    65    0.6   111      2.1   808.2    0.00       0    50.4
 141    3:40   42.4    72    0.1   334      0.6   808.2    0.00       0    50.3
 141    3:50   41.9    77    0.0     0      0.0   808.2    0.00       0    50.2
 141    4:00   41.0    76    0.1    93      0.7   808.1    0.00       0    50.1
 141    4:10   40.9    76    1.5   118      2.9   808.1    0.00       0    50.0
 141    4:20   40.2    75    2.3   131      3.2   808.1    0.00       0    49.9
 141    4:30   40.7    73    2.4   134      3.3   808.1    0.00       2    49.8
 141    4:40   41.5    72    2.1   128      2.9   808.1    0.00       4    49.7
 141    4:50   40.8    75    0.9    99      2.3   808.1    0.00       7    49.6
 141    5:00   40.1    76    0.8    99      2.3   808.1    0.00      12    49.5
 141    5:10   40.8    73    0.6   106      2.3   808.2    0.00      22    49.4
 141    5:20   41.0    73    0.5   186      1.8   808.2    0.00      31    49.2
 141    5:30   42.3    70    0.3   187      1.6   808.2    0.00      72    49.2
 141    5:40   43.8    70    1.0    92      1.8   808.2    0.00      79    49.0
 141    5:50   44.3    72    1.5   102      2.6   808.3    0.00     109    49.0
 141    6:00   45.3    72    1.5    93      2.1   808.3    0.00     105    48.9
 141    6:10   45.0    69    1.7   118      2.9   808.3    0.00     108    48.8
 141    6:20   44.9    74    2.4   107      4.4   808.3    0.00     151    48.8
 141    6:30   44.7    76    3.8    87      5.6   808.3    0.00     123    48.8
 141    6:40   45.0    75    3.7    92      5.3   808.4    0.00     153    48.8
 141    6:50   46.0    73    3.3    93      5.1   808.4    0.00     203    48.8
 141    7:00   46.6    72    3.3    94      4.7   808.4    0.00     289    48.8
 141    7:10   48.9    67    2.9    91      4.2   808.4    0.00     472    48.9
 141    7:20   51.2    58    2.7   133      4.6   808.3    0.00     523    48.9
 141    7:30   53.7    51    2.6   136      5.8   808.4    0.00     616    49.0
 141    7:40   53.8    50    2.5   151      4.7   808.3    0.00     460    49.2
 141    7:50   54.9    50    1.9     9      3.9   808.4    0.00     653    49.3
 141    8:00   53.9    57    2.6   322      4.7   808.3    0.00     352    49.6
 141    8:10   52.9    58    3.3   298      5.5   808.3    0.00     465    49.8
 141    8:20   54.9    55    2.6   303      4.6   808.3    0.00     729    50.1
 141    8:30   55.0    54    2.9   312      5.9   808.3    0.00     620    50.5
 141    8:40   55.3    52    2.1   292      5.3   808.2    0.00     562    50.8
 141    8:50   56.0    52    4.8   305      8.4   808.1    0.00     712    51.1
 141    9:00   56.8    50    3.9   310      6.8   808.1    0.00     786    51.5
 141    9:10   56.4    51    2.8   340      7.1   808.1    0.00     601    51.9
 141    9:20   56.7    39    4.2   193     12.3   808.1    0.00     691    52.2
 141    9:30   57.0    34    5.1   131     10.5   808.1    0.00     515    52.6
 141    9:40   56.6    34    4.4   107      8.7   808.0    0.00     555    53.0
 141    9:50   57.1    34    6.0   149     10.4   808.0    0.00     548    53.3
 141   10:00   56.7    34    4.6   118      9.6   808.1    0.00     566    53.7
 141   10:10   57.0    33    4.4   138     10.4   808.1    0.00     558    54.0
 141   10:20   57.0    34    5.0   120      9.9   808.0    0.00     531    54.3
 141   10:30   56.8    34    4.8   199      9.5   808.0    0.00     541    54.6
 141   10:40   57.2    34    6.3   168     11.5   808.0    0.00     657    54.9
 141   10:50   57.4    33    4.7   148     10.4   807.9    0.00     722    55.1
 141   11:00   58.4    32    5.3   115      9.3   807.8    0.00     876    55.4
 141   11:10   59.0    32    4.3   132     10.4   807.8    0.00     736    55.6
 141   11:20   58.9    31    7.0   113     15.3   807.7    0.00     755    55.9
 141   11:30   58.4    32    7.3   154     15.9   807.6    0.00     635    56.2
 141   11:40   58.6    32    7.5   143     18.5   807.5    0.00     732    56.5
 141   11:50   59.5    30    6.2   107     12.1   807.4    0.00     913    56.8
 141   12:00   60.5    30    7.5   138     13.3   807.3    0.00    1052    57.1
 141   12:10   60.4    29    7.0   122     12.2   807.2    0.00    1086    57.3
 141   12:20   60.6    29    9.5   138     17.0   807.2    0.00     810    57.7
 141   12:30   60.4    27    8.8   142     16.5   807.1    0.00     748    57.9
 141   12:40   61.1    27    7.3   132     16.0   807.0    0.00     847    58.3
 141   12:50   60.9    27    8.0   166     15.8   807.0    0.00     855    58.6
 141   13:00   60.6    27    6.6   152     12.1   806.9    0.00     354    58.9
 141   13:10   59.8    27    7.2   108     20.0   806.8    0.00     292    59.2
 141   13:20   60.0    27   15.1   134     24.5   806.7    0.00     787    59.4
 141   13:30   60.4    26   10.7   120     19.1   806.7    0.00     802    59.7
 141   13:40   61.2    25    7.1   100     14.5   806.7    0.00    1066    59.8
 141   13:50   61.6    24    5.2   108     12.3   806.5    0.00     926    60.0
 141   14:00   62.2    23   11.2   151     23.7   806.4    0.00     890    60.1
 141   14:10   62.5    23   10.7   164     22.4   806.3    0.00     911    60.2
 141   14:20   62.1    23   13.3   135     22.1   806.2    0.00     764    60.4
 141   14:30   61.3    24   12.4   130     20.6   806.3    0.00     485    60.5
 141   14:40   61.0    24   11.3   141     21.8   806.2    0.00     833    60.7
 141   14:50   62.1    23   12.7   133     24.8   806.1    0.00     840    60.8
 141   15:00   61.3    27   13.6   107     20.5   806.1    0.00     791    60.9
 141   15:10   59.6    30   11.4   100     17.6   806.1    0.00     183    61.0
 141   15:20   58.7    31    9.6    98     17.9   806.1    0.00     231    61.1
 141   15:30   59.3    30    8.3   106     14.2   806.0    0.00     466    61.1
 141   15:40   60.3    28    8.3   120     17.0   806.0    0.00     475    61.1
 141   15:50   60.2    28    8.9   121     15.4   805.9    0.00     435    61.0
 141   16:00   59.8    28    8.4   106     16.0   805.9    0.00     211    61.0
 141   16:10   59.6    28   10.2   108     18.9   805.8    0.00     331    60.9
 141   16:20   59.2    28   10.3   102     18.3   805.9    0.00     182    60.8
 141   16:30   59.1    29    9.2   110     21.2   806.0    0.00     192    60.7
 141   16:40   57.2    33   10.3   109     22.6   806.3    0.00     128    60.6
 141   16:50   57.1    35    6.5   115     13.4   806.3    0.00     174    60.5
 141   17:00   57.4    33    9.5    98     19.0   806.1    0.00     159    60.4
 141   17:10   57.0    34    9.2   100     15.8   806.2    0.00     122    60.3
 141   17:20   56.5    34   10.4   117     18.6   806.2    0.00     131    60.2
 141   17:30   56.0    36   10.8   123     21.3   806.3    0.00     151    60.1
 141   17:40   54.4    39   16.4   134     25.2   806.3    0.00     253    60.0
 141   17:50   55.0    35   14.1   137     25.5   806.3    0.00     171    59.8
 141   18:00   55.1    34   15.1   132     24.1   806.3    0.00     124    59.7
 141   18:10   55.3    33   13.3   131     22.4   806.3    0.00      94    59.5
 141   18:20   55.1    35    9.8   112     15.5   806.5    0.00      33    59.4
 141   18:30   54.7    39    9.8   102     19.2   806.6    0.00      23    59.2
 141   18:40   53.9    42    8.8   111     16.7   806.7    0.00      20    59.1
 141   18:50   53.5    43    8.9    96     14.1   806.7    0.00      10    58.9
 141   19:00   53.2    44    8.4   101     15.6   806.8    0.00       4    58.8
 141   19:10   52.9    44    7.3   112     12.6   806.9    0.00       1    58.7
 141   19:20   52.7    44    6.9    98     14.5   806.9    0.00       0    58.5
 141   19:30   52.6    44    7.2    99     12.6   806.9    0.00       0    58.4
 141   19:40   52.4    45    6.5   104     12.9   807.0    0.00       0    58.2
 141   19:50   52.2    45    6.7   107     12.1   807.0    0.00       0    58.1
 141   20:00   52.0    46    5.1   104      9.9   807.1    0.00       0    57.9
 141   20:10   51.8    46    5.4    94      8.9   807.2    0.00       0    57.8
 141   20:20   51.7    46    5.5    90     10.3   807.3    0.00       0    57.6
 141   20:30   51.4    47    4.5    89      7.3   807.3    0.00       0    57.5
 141   20:40   51.2    48    3.8    85      7.0   807.4    0.00       0    57.3
 141   20:50   51.0    49    2.2    79      5.6   807.6    0.00       0    57.2
 141   21:00   50.6    54    5.6   279     15.1   807.9    0.00       0    57.1
 141   21:10   49.5    67    5.7   297     11.0   808.0    0.00       0    56.9
 141   21:20   49.2    68    4.8   269      8.8   808.2    0.00       0    56.8
 141   21:30   48.5    71    7.5   299     12.9   808.2    0.00       0    56.7
 141   21:40   48.0    71    7.6   295     12.6   808.2    0.00       0    56.6
 141   21:50   47.4    74    8.0   294     13.0   808.1    0.00       0    56.4
 141   22:00   46.8    77    7.5   286     12.3   808.1    0.00       0    56.3
 141   22:10   46.5    77    6.4   297     10.4   808.1    0.00       0    56.2
 141   22:20   46.2    78    5.9   293      8.8   808.1    0.00       0    56.1
 141   22:30   45.9    79    5.0   290      9.1   808.1    0.00       0    56.0
 141   22:40   45.8    79    5.0   290      8.4   808.2    0.00       0    55.9
 141   22:50   45.6    78    4.6   300      9.3   808.2    0.00       0    55.7
 141   23:00   45.6    78    5.2   288      8.0   808.2    0.00       0    55.6
 141   23:10   45.4    80    5.6   289      9.4   808.3    0.00       0    55.5
 141   23:20   45.3    80    6.0   295     10.0   808.3    0.00       0    55.3
 141   23:30   45.3    80    5.5   288     10.2   808.2    0.00       0    55.1
 141   23:40   45.2    80    5.4   287      9.1   808.2    0.00       0    55.0
 141   23:50   45.2    80    5.9   292      9.1   808.2    0.00       0    54.9
 142    0:00   45.0    81    5.6   278      8.8   808.2    0.00       0    54.8
 142    0:10   44.6    83    5.8   288      9.8   808.1    0.00       0    54.6
 142    0:20   44.4    84    5.6   279      8.9   808.1    0.00       0    54.5
 142    0:30   44.2    85    5.5   271      7.8   808.1    0.00       0    54.4
 142    0:40   44.2    86    4.9   267      7.3   808.0    0.00       0    54.3
 142    0:50   44.3    86    5.3   258      7.8   808.1    0.00       1    54.1
 142    1:00   44.3    86    6.2   266      9.3   808.1    0.00       0    54.1
 142    1:10   44.1    87    5.3   271      8.0   808.1    0.00       0    54.0
 142    1:20   43.9    88    5.6   276      7.7   808.1    0.00       0    53.9
 142    1:30   43.9    89    5.6   268      8.3   808.1    0.00       0    53.7
 142    1:40   43.9    89    5.6   269      8.8   808.1    0.00       0    53.7
 142    1:50   44.0    88    5.0   275      7.8   808.2    0.00       0    53.5

Return to Tonopah, Nevada graphs page.


Western Regional Climate Center,wrcc@dri.edu